Autaugaville, Alabama
Current Conditions -  °F | °C
As of 12:35 AM on Monday 26 Jan 2015 (Local Time) from K1A9 Reporting Station
Broken Clouds Broken Clouds  
Wind Chill: 45°   Ceiling: 4300
Heat Index: 47°   Visibility: 10mi
Dew Point: 40°   Wind: 6mph
Humidity: 75%   Direction: 280°W
Pressure: 29.84"   Gusts: NA
Location:  32.43°N, 86.65°W
Report Text: K1A9 260635Z AUTO 28005KT 10SM SCT038 BKN043 BKN050 09/04 A2984 RMK AO2 T00850043
Loading
Personal Weather Stations






























Interactive Weather Map New forecast layout! Learn more

10-Day Weather Forecast

Advertisements
Track Severe Weather on mobile